Back to Top

Language: 

My Weather Underground Personal Weather Station Historical Data with Graphs...

Delerius Weather Station Historical Data
Daily Summary for February 28, 2017 Units:  Both    English   Metric
« Previous Day
Next Day »
Daily Weekly Monthly Yearly Custom
  High: Low: Average:
Temperature: 44.7 °F /  7.1 °C 33.0 °F /  0.6 °C 39 °F /  3.9 °C
Dew Point: 38.8 °F /  3.8 °C 31.5 °F /  -0.3 °C 35.7 °F /  2.1 °C
Humidity: 95 % 72 % 88 %
Wind Speed: 14.0 mph /  22.5 km/h - 6.4 mph /  10.3 km/h
Wind Gust: 18.0 mph /  29 km/h - -
Wind:- - WSW
Pressure: 29.31 in /  992.4 hPa 28.96 in /  980.6 hPa -
Precipitation: 0.00 in /  0 mm    
Historical Graphs
 
 
Tabular Data for February 28, 2017
Time Temperature Dew Point Pressure Wind Wind Speed Wind Gust Humidity Rainfall Rate (Hourly) solar Conditions
00:00 33.4 °F /  0.8 °C 31.9 °F /  -0.1 °C 28.97 in /  980.9 hPa West 1.0 mph /  1.6 km/h 1.0 mph /  1.6 km/h 94 % 0.00 in /  0 mm 0 W/m2
00:05 33.3 °F /  0.7 °C 31.5 °F /  -0.3 °C 28.97 in /  980.9 hPa West 1.0 mph /  1.6 km/h 2.0 mph /  3.2 km/h 93 % 0.00 in /  0 mm 0 W/m2
00:15 33.4 °F /  0.8 °C 31.9 °F /  -0.1 °C 28.96 in /  980.6 hPa West 2.0 mph /  3.2 km/h 4.0 mph /  6.4 km/h 94 % 0.00 in /  0 mm 0 W/m2
00:20 33.3 °F /  0.7 °C 31.8 °F /  -0.1 °C 28.97 in /  980.9 hPa West 3.0 mph /  4.8 km/h 4.0 mph /  6.4 km/h 94 % 0.00 in /  0 mm 0 W/m2
00:25 33.3 °F /  0.7 °C 31.8 °F /  -0.1 °C 28.96 in /  980.6 hPa West 4.0 mph /  6.4 km/h 4.0 mph /  6.4 km/h 94 % 0.00 in /  0 mm 0 W/m2
00:30 33.4 °F /  0.8 °C 31.9 °F /  -0.1 °C 28.96 in /  980.6 hPa West 5.0 mph /  8 km/h 7.0 mph /  11.3 km/h 94 % 0.00 in /  0 mm 0 W/m2
00:40 33.7 °F /  0.9 °C 32.2 °F /  0.1 °C 28.97 in /  980.9 hPa WSW 5.0 mph /  8 km/h 5.0 mph /  8 km/h 94 % 0.00 in /  0 mm 0 W/m2
00:45 33.7 °F /  0.9 °C 32.2 °F /  0.1 °C 28.97 in /  980.9 hPa WSW 4.0 mph /  6.4 km/h 5.0 mph /  8 km/h 94 % 0.00 in /  0 mm 0 W/m2
00:55 33.4 °F /  0.8 °C 31.9 °F /  -0.1 °C 28.97 in /  980.9 hPa WSW 2.0 mph /  3.2 km/h 3.0 mph /  4.8 km/h 94 % 0.00 in /  0 mm 0 W/m2
01:00 33.4 °F /  0.8 °C 31.9 °F /  -0.1 °C 28.97 in /  980.9 hPa WSW 2.0 mph /  3.2 km/h 3.0 mph /  4.8 km/h 94 % 0.00 in /  0 mm 0 W/m2
01:05 33.3 °F /  0.7 °C 31.8 °F /  -0.1 °C 28.97 in /  980.9 hPa WSW 2.0 mph /  3.2 km/h 6.0 mph /  9.7 km/h 94 % 0.00 in /  0 mm 0 W/m2
01:15 33.0 °F /  0.6 °C 31.5 °F /  -0.3 °C 28.97 in /  980.9 hPa WSW 2.0 mph /  3.2 km/h 6.0 mph /  9.7 km/h 94 % 0.00 in /  0 mm 0 W/m2
01:20 33.0 °F /  0.6 °C 31.5 °F /  -0.3 °C 28.97 in /  980.9 hPa WSW 3.0 mph /  4.8 km/h 6.0 mph /  9.7 km/h 94 % 0.00 in /  0 mm 0 W/m2
01:25 33.1 °F /  0.6 °C 31.6 °F /  -0.2 °C 28.97 in /  980.9 hPa West 4.0 mph /  6.4 km/h 7.0 mph /  11.3 km/h 94 % 0.00 in /  0 mm 0 W/m2
01:30 33.4 °F /  0.8 °C 32.1 °F /  0.1 °C 28.97 in /  980.9 hPa West 6.0 mph /  9.7 km/h 8.0 mph /  12.9 km/h 95 % 0.00 in /  0 mm 0 W/m2
01:35 33.7 °F /  0.9 °C 32.4 °F /  0.2 °C 28.97 in /  980.9 hPa West 7.0 mph /  11.3 km/h 8.0 mph /  12.9 km/h 95 % 0.00 in /  0 mm 0 W/m2
01:40 34.0 °F /  1.1 °C 32.7 °F /  0.4 °C 28.97 in /  980.9 hPa WSW 7.0 mph /  11.3 km/h 7.0 mph /  11.3 km/h 95 % 0.00 in /  0 mm 0 W/m2
01:50 34.2 °F /  1.2 °C 32.7 °F /  0.4 °C 28.97 in /  980.9 hPa WNW 6.0 mph /  9.7 km/h 7.0 mph /  11.3 km/h 94 % 0.00 in /  0 mm 0 W/m2
01:55 34.2 °F /  1.2 °C 32.7 °F /  0.4 °C 28.97 in /  980.9 hPa WNW 7.0 mph /  11.3 km/h 9.0 mph /  14.5 km/h 94 % 0.00 in /  0 mm 0 W/m2
02:00 34.4 °F /  1.3 °C 32.9 °F /  0.5 °C 28.97 in /  980.9 hPa West 7.0 mph /  11.3 km/h 7.0 mph /  11.3 km/h 94 % 0.00 in /  0 mm 0 W/m2
02:05 34.5 °F /  1.4 °C 33.0 °F /  0.6 °C 28.97 in /  980.9 hPa WNW 7.0 mph /  11.3 km/h 7.0 mph /  11.3 km/h 94 % 0.00 in /  0 mm 0 W/m2
02:10 34.6 °F /  1.4 °C 33.1 °F /  0.6 °C 28.97 in /  980.9 hPa West 7.0 mph /  11.3 km/h 7.0 mph /  11.3 km/h 94 % 0.00 in /  0 mm 0 W/m2
02:20 34.7 °F /  1.5 °C 33.2 °F /  0.7 °C 28.97 in /  980.9 hPa West 5.0 mph /  8 km/h 5.0 mph /  8 km/h 94 % 0.00 in /  0 mm 0 W/m2
02:25 34.7 °F /  1.5 °C 33.2 °F /  0.7 °C 28.97 in /  980.9 hPa West 3.0 mph /  4.8 km/h 6.0 mph /  9.7 km/h 94 % 0.00 in /  0 mm 0 W/m2
02:30 34.7 °F /  1.5 °C 33.2 °F /  0.7 °C 28.97 in /  980.9 hPa West 3.0 mph /  4.8 km/h 3.0 mph /  4.8 km/h 94 % 0.00 in /  0 mm 0 W/m2
02:35 34.8 °F /  1.6 °C 33.2 °F /  0.7 °C 28.98 in /  981.3 hPa WNW 4.0 mph /  6.4 km/h 4.0 mph /  6.4 km/h 94 % 0.00 in /  0 mm 0 W/m2
02:40 34.8 °F /  1.6 °C 33.2 °F /  0.7 °C 28.98 in /  981.3 hPa WNW 5.0 mph /  8 km/h 5.0 mph /  8 km/h 94 % 0.00 in /  0 mm 0 W/m2
02:45 34.9 °F /  1.6 °C 33.3 °F /  0.7 °C 28.98 in /  981.3 hPa West 5.0 mph /  8 km/h 6.0 mph /  9.7 km/h 94 % 0.00 in /  0 mm 0 W/m2
02:55 34.9 °F /  1.6 °C 33.3 °F /  0.7 °C 28.98 in /  981.3 hPa WNW 5.0 mph /  8 km/h 9.0 mph /  14.5 km/h 94 % 0.00 in /  0 mm 0 W/m2
03:00 34.9 °F /  1.6 °C 33.3 °F /  0.7 °C 28.98 in /  981.3 hPa West 7.0 mph /  11.3 km/h 9.0 mph /  14.5 km/h 94 % 0.00 in /  0 mm 0 W/m2
03:05 35.0 °F /  1.7 °C 33.2 °F /  0.7 °C 28.98 in /  981.3 hPa WNW 7.0 mph /  11.3 km/h 9.0 mph /  14.5 km/h 93 % 0.00 in /  0 mm 0 W/m2
03:10 34.9 °F /  1.6 °C 33.1 °F /  0.6 °C 28.98 in /  981.3 hPa West 7.0 mph /  11.3 km/h 9.0 mph /  14.5 km/h 93 % 0.00 in /  0 mm 0 W/m2
03:20 34.9 °F /  1.6 °C 33.1 °F /  0.6 °C 28.98 in /  981.3 hPa WNW 6.0 mph /  9.7 km/h 6.0 mph /  9.7 km/h 93 % 0.00 in /  0 mm 0 W/m2
03:30 34.8 °F /  1.6 °C 33.0 °F /  0.6 °C 28.98 in /  981.3 hPa West 5.0 mph /  8 km/h 5.0 mph /  8 km/h 93 % 0.00 in /  0 mm 0 W/m2
03:35 34.8 °F /  1.6 °C 33.0 °F /  0.6 °C 28.98 in /  981.3 hPa West 4.0 mph /  6.4 km/h 6.0 mph /  9.7 km/h 93 % 0.00 in /  0 mm 0 W/m2
03:40 34.7 °F /  1.5 °C 32.9 °F /  0.5 °C 28.97 in /  980.9 hPa West 3.0 mph /  4.8 km/h 3.0 mph /  4.8 km/h 93 % 0.00 in /  0 mm 0 W/m2
03:45 34.6 °F /  1.4 °C 32.5 °F /  0.3 °C 28.98 in /  981.3 hPa West 2.0 mph /  3.2 km/h 6.0 mph /  9.7 km/h 92 % 0.00 in /  0 mm 0 W/m2
03:50 34.5 °F /  1.4 °C 32.4 °F /  0.2 °C 28.98 in /  981.3 hPa West 1.0 mph /  1.6 km/h 1.0 mph /  1.6 km/h 92 % 0.00 in /  0 mm 0 W/m2
04:00 34.1 °F /  1.2 °C 32.0 °F /  0 °C 28.98 in /  981.3 hPa WSW 1.0 mph /  1.6 km/h 6.0 mph /  9.7 km/h 92 % 0.00 in /  0 mm 0 W/m2
04:05 34.2 °F /  1.2 °C 32.4 °F /  0.2 °C 28.98 in /  981.3 hPa SW 3.0 mph /  4.8 km/h 6.0 mph /  9.7 km/h 93 % 0.00 in /  0 mm 0 W/m2
04:10 34.1 °F /  1.2 °C 32.3 °F /  0.2 °C 28.98 in /  981.3 hPa West 4.0 mph /  6.4 km/h 6.0 mph /  9.7 km/h 93 % 0.00 in /  0 mm 0 W/m2
04:15 34.0 °F /  1.1 °C 32.2 °F /  0.1 °C 28.98 in /  981.3 hPa WNW 5.0 mph /  8 km/h 7.0 mph /  11.3 km/h 93 % 0.00 in /  0 mm 0 W/m2
04:20 34.0 °F /  1.1 °C 32.2 °F /  0.1 °C 28.98 in /  981.3 hPa WSW 6.0 mph /  9.7 km/h 6.0 mph /  9.7 km/h 93 % 0.00 in /  0 mm 0 W/m2
04:25 34.0 °F /  1.1 °C 32.2 °F /  0.1 °C 28.98 in /  981.3 hPa West 5.0 mph /  8 km/h 6.0 mph /  9.7 km/h 93 % 0.00 in /  0 mm 0 W/m2
04:35 34.1 °F /  1.2 °C 32.6 °F /  0.3 °C 28.99 in /  981.6 hPa WSW 5.0 mph /  8 km/h 6.0 mph /  9.7 km/h 94 % 0.00 in /  0 mm 0 W/m2
04:40 34.0 °F /  1.1 °C 32.2 °F /  0.1 °C 28.99 in /  981.6 hPa WSW 4.0 mph /  6.4 km/h 6.0 mph /  9.7 km/h 93 % 0.00 in /  0 mm 0 W/m2
04:45 34.0 °F /  1.1 °C 32.2 °F /  0.1 °C 28.99 in /  981.6 hPa WSW 3.0 mph /  4.8 km/h 6.0 mph /  9.7 km/h 93 % 0.00 in /  0 mm 0 W/m2
04:50 33.9 °F /  1.1 °C 32.1 °F /  0.1 °C 28.99 in /  981.6 hPa WSW 1.0 mph /  1.6 km/h 1.0 mph /  1.6 km/h 93 % 0.00 in /  0 mm 0 W/m2
05:00 33.6 °F /  0.9 °C 31.8 °F /  -0.1 °C 29.00 in /  981.9 hPa WSW 1.0 mph /  1.6 km/h 7.0 mph /  11.3 km/h 93 % 0.00 in /  0 mm 0 W/m2
05:05 33.6 °F /  0.9 °C 31.8 °F /  -0.1 °C 29.00 in /  981.9 hPa West 2.0 mph /  3.2 km/h 7.0 mph /  11.3 km/h 93 % 0.00 in /  0 mm 0 W/m2
05:15 33.8 °F /  1 °C 32.3 °F /  0.2 °C 29.00 in /  981.9 hPa WNW 3.0 mph /  4.8 km/h 6.0 mph /  9.7 km/h 94 % 0.00 in /  0 mm 0 W/m2
05:20 34.0 °F /  1.1 °C 32.5 °F /  0.3 °C 29.00 in /  981.9 hPa WNW 2.0 mph /  3.2 km/h 2.0 mph /  3.2 km/h 94 % 0.00 in /  0 mm 0 W/m2
05:25 34.1 °F /  1.2 °C 32.6 °F /  0.3 °C 29.00 in /  981.9 hPa WNW 1.0 mph /  1.6 km/h 6.0 mph /  9.7 km/h 94 % 0.00 in /  0 mm 0 W/m2
05:30 34.2 °F /  1.2 °C 32.7 °F /  0.4 °C 29.01 in /  982.3 hPa WSW 2.0 mph /  3.2 km/h 6.0 mph /  9.7 km/h 94 % 0.00 in /  0 mm 0 W/m2
05:40 34.8 °F /  1.6 °C 33.2 °F /  0.7 °C 29.01 in /  982.3 hPa WSW 7.0 mph /  11.3 km/h 10.0 mph /  16.1 km/h 94 % 0.00 in /  0 mm 0 W/m2
05:45 34.9 °F /  1.6 °C 33.3 °F /  0.7 °C 29.01 in /  982.3 hPa West 9.0 mph /  14.5 km/h 10.0 mph /  16.1 km/h 94 % 0.00 in /  0 mm 0 W/m2
05:50 34.9 °F /  1.6 °C 33.3 °F /  0.7 °C 29.01 in /  982.3 hPa WNW 8.0 mph /  12.9 km/h 8.0 mph /  12.9 km/h 94 % 0.00 in /  0 mm 0 W/m2
05:55 34.9 °F /  1.6 °C 33.1 °F /  0.6 °C 29.01 in /  982.3 hPa West 5.0 mph /  8 km/h 8.0 mph /  12.9 km/h 93 % 0.00 in /  0 mm 0 W/m2
06:00 34.8 °F /  1.6 °C 33.0 °F /  0.6 °C 29.01 in /  982.3 hPa West 5.0 mph /  8 km/h 6.0 mph /  9.7 km/h 93 % 0.00 in /  0 mm 0 W/m2
06:05 34.9 °F /  1.6 °C 33.1 °F /  0.6 °C 29.01 in /  982.3 hPa West 6.0 mph /  9.7 km/h 8.0 mph /  12.9 km/h 93 % 0.00 in /  0 mm 0 W/m2
06:15 34.8 °F /  1.6 °C 33.0 °F /  0.6 °C 29.01 in /  982.3 hPa WNW 5.0 mph /  8 km/h 7.0 mph /  11.3 km/h 93 % 0.00 in /  0 mm 0 W/m2
06:20 34.7 °F /  1.5 °C 32.9 °F /  0.5 °C 29.01 in /  982.3 hPa West 4.0 mph /  6.4 km/h 8.0 mph /  12.9 km/h 93 % 0.00 in /  0 mm 0 W/m2
06:25 34.7 °F /  1.5 °C 32.9 °F /  0.5 °C 29.01 in /  982.3 hPa WSW 5.0 mph /  8 km/h 13.0 mph /  20.9 km/h 93 % 0.00 in /  0 mm 0 W/m2
06:30 34.8 °F /  1.6 °C 33.0 °F /  0.6 °C 29.01 in /  982.3 hPa WSW 8.0 mph /  12.9 km/h 8.0 mph /  12.9 km/h 93 % 0.00 in /  0 mm 0 W/m2
06:35 34.9 °F /  1.6 °C 33.1 °F /  0.6 °C 29.02 in /  982.6 hPa West 10.0 mph /  16.1 km/h 10.0 mph /  16.1 km/h 93 % 0.00 in /  0 mm 0 W/m2
06:45 34.8 °F /  1.6 °C 33.0 °F /  0.6 °C 29.01 in /  982.3 hPa WSW 8.0 mph /  12.9 km/h 12.0 mph /  19.3 km/h 93 % 0.00 in /  0 mm 0 W/m2
06:50 34.8 °F /  1.6 °C 33.0 °F /  0.6 °C 29.01 in /  982.3 hPa WSW 8.0 mph /  12.9 km/h 8.0 mph /  12.9 km/h 93 % 0.00 in /  0 mm 0 W/m2
07:00 34.6 °F /  1.4 °C 32.8 °F /  0.4 °C 29.02 in /  982.6 hPa WSW 7.0 mph /  11.3 km/h 7.0 mph /  11.3 km/h 93 % 0.00 in /  0 mm 5 W/m2
07:05 34.5 °F /  1.4 °C 32.7 °F /  0.4 °C 29.02 in /  982.6 hPa West 6.0 mph /  9.7 km/h 7.0 mph /  11.3 km/h 93 % 0.00 in /  0 mm 11 W/m2
07:10 34.4 °F /  1.3 °C 32.6 °F /  0.3 °C 29.02 in /  982.6 hPa WSW 5.0 mph /  8 km/h 8.0 mph /  12.9 km/h 93 % 0.00 in /  0 mm 19 W/m2
07:20 34.4 °F /  1.3 °C 32.6 °F /  0.3 °C 29.02 in /  982.6 hPa WSW 7.0 mph /  11.3 km/h 7.0 mph /  11.3 km/h 93 % 0.00 in /  0 mm 26 W/m2
07:25 34.5 °F /  1.4 °C 32.7 °F /  0.4 °C 29.02 in /  982.6 hPa WSW 7.0 mph /  11.3 km/h 7.0 mph /  11.3 km/h 93 % 0.00 in /  0 mm 49 W/m2
07:30 34.7 °F /  1.5 °C 32.9 °F /  0.5 °C 29.02 in /  982.6 hPa WSW 7.0 mph /  11.3 km/h 7.0 mph /  11.3 km/h 93 % 0.00 in /  0 mm 74 W/m2
07:35 34.9 °F /  1.6 °C 33.1 °F /  0.6 °C 29.02 in /  982.6 hPa West 6.0 mph /  9.7 km/h 7.0 mph /  11.3 km/h 93 % 0.00 in /  0 mm 84 W/m2
07:40 35.1 °F /  1.7 °C 33.3 °F /  0.7 °C 29.02 in /  982.6 hPa West 6.0 mph /  9.7 km/h 9.0 mph /  14.5 km/h 93 % 0.00 in /  0 mm 98 W/m2
07:45 35.3 °F /  1.8 °C 33.5 °F /  0.8 °C 29.03 in /  983 hPa West 8.0 mph /  12.9 km/h 13.0 mph /  20.9 km/h 93 % 0.00 in /  0 mm 35 W/m2
07:55 35.4 °F /  1.9 °C 33.3 °F /  0.7 °C 29.03 in /  983 hPa West 10.0 mph /  16.1 km/h 10.0 mph /  16.1 km/h 92 % 0.00 in /  0 mm 130 W/m2
08:00 35.7 °F /  2.1 °C 33.6 °F /  0.9 °C 29.03 in /  983 hPa WSW 8.0 mph /  12.9 km/h 9.0 mph /  14.5 km/h 92 % 0.00 in /  0 mm 102 W/m2
08:05 35.9 °F /  2.2 °C 33.8 °F /  1 °C 29.03 in /  983 hPa West 8.0 mph /  12.9 km/h 9.0 mph /  14.5 km/h 92 % 0.00 in /  0 mm 51 W/m2
08:10 36.0 °F /  2.2 °C 33.9 °F /  1.1 °C 29.03 in /  983 hPa WNW 8.0 mph /  12.9 km/h 8.0 mph /  12.9 km/h 92 % 0.00 in /  0 mm 167 W/m2
08:15 36.2 °F /  2.3 °C 34.1 °F /  1.2 °C 29.03 in /  983 hPa West 9.0 mph /  14.5 km/h 9.0 mph /  14.5 km/h 92 % 0.00 in /  0 mm 174 W/m2
08:25 36.8 °F /  2.7 °C 34.4 °F /  1.3 °C 29.03 in /  983 hPa West 9.0 mph /  14.5 km/h 12.0 mph /  19.3 km/h 91 % 0.00 in /  0 mm 239 W/m2
08:30 36.9 °F /  2.7 °C 34.5 °F /  1.4 °C 29.03 in /  983 hPa West 10.0 mph /  16.1 km/h 10.0 mph /  16.1 km/h 91 % 0.00 in /  0 mm 90 W/m2
08:35 36.9 °F /  2.7 °C 34.5 °F /  1.4 °C 29.03 in /  983 hPa WSW 10.0 mph /  16.1 km/h 15.0 mph /  24.1 km/h 91 % 0.00 in /  0 mm 97 W/m2
08:40 37.0 °F /  2.8 °C 34.6 °F /  1.4 °C 29.03 in /  983 hPa WSW 11.0 mph /  17.7 km/h 14.0 mph /  22.5 km/h 91 % 0.00 in /  0 mm 58 W/m2
08:45 37.0 °F /  2.8 °C 34.6 °F /  1.4 °C 29.04 in /  983.3 hPa West 12.0 mph /  19.3 km/h 14.0 mph /  22.5 km/h 91 % 0.00 in /  0 mm 98 W/m2
08:50 37.2 °F /  2.9 °C 34.8 °F /  1.6 °C 29.03 in /  983 hPa West 12.0 mph /  19.3 km/h 12.0 mph /  19.3 km/h 91 % 0.00 in /  0 mm 100 W/m2
09:00 37.8 °F /  3.2 °C 35.4 °F /  1.9 °C 29.03 in /  983 hPa West 9.0 mph /  14.5 km/h 9.0 mph /  14.5 km/h 91 % 0.00 in /  0 mm 288 W/m2
09:05 38.1 °F /  3.4 °C 35.4 °F /  1.9 °C 29.04 in /  983.3 hPa WSW 10.0 mph /  16.1 km/h 16.0 mph /  25.7 km/h 90 % 0.00 in /  0 mm 322 W/m2
09:10 38.4 °F /  3.6 °C 35.7 °F /  2.1 °C 29.04 in /  983.3 hPa West 11.0 mph /  17.7 km/h 11.0 mph /  17.7 km/h 90 % 0.00 in /  0 mm 309 W/m2
09:20 38.8 °F /  3.8 °C 35.8 °F /  2.1 °C 29.04 in /  983.3 hPa West 12.0 mph /  19.3 km/h 15.0 mph /  24.1 km/h 89 % 0.00 in /  0 mm 355 W/m2
09:25 38.9 °F /  3.8 °C 35.6 °F /  2 °C 29.05 in /  983.6 hPa WNW 12.0 mph /  19.3 km/h 15.0 mph /  24.1 km/h 88 % 0.00 in /  0 mm 369 W/m2
09:35 38.8 °F /  3.8 °C 35.6 °F /  2 °C 29.05 in /  983.6 hPa SW 14.0 mph /  22.5 km/h 14.0 mph /  22.5 km/h 88 % 0.00 in /  0 mm 406 W/m2
09:40 38.9 °F /  3.8 °C 35.6 °F /  2 °C 29.05 in /  983.6 hPa WNW 12.0 mph /  19.3 km/h 12.0 mph /  19.3 km/h 88 % 0.00 in /  0 mm 301 W/m2
09:45 39.1 °F /  3.9 °C 35.8 °F /  2.1 °C 29.05 in /  983.6 hPa WNW 10.0 mph /  16.1 km/h 14.0 mph /  22.5 km/h 88 % 0.00 in /  0 mm 394 W/m2
09:50 39.4 °F /  4.1 °C 36.1 °F /  2.3 °C 29.05 in /  983.6 hPa West 8.0 mph /  12.9 km/h 8.0 mph /  12.9 km/h 88 % 0.00 in /  0 mm 192 W/m2
09:55 39.8 °F /  4.3 °C 36.5 °F /  2.5 °C 29.05 in /  983.6 hPa West 8.0 mph /  12.9 km/h 15.0 mph /  24.1 km/h 88 % 0.00 in /  0 mm 353 W/m2
10:05 40.4 °F /  4.7 °C 35.9 °F /  2.2 °C 29.05 in /  983.6 hPa West 11.0 mph /  17.7 km/h 13.0 mph /  20.9 km/h 84 % 0.00 in /  0 mm 417 W/m2
10:10 40.7 °F /  4.8 °C 36.2 °F /  2.3 °C 29.05 in /  983.6 hPa WSW 11.0 mph /  17.7 km/h 11.0 mph /  17.7 km/h 84 % 0.00 in /  0 mm 450 W/m2
10:15 41.1 °F /  5.1 °C 36.6 °F /  2.6 °C 29.05 in /  983.6 hPa West 9.0 mph /  14.5 km/h 12.0 mph /  19.3 km/h 84 % 0.00 in /  0 mm 429 W/m2
10:20 41.3 °F /  5.2 °C 36.8 °F /  2.7 °C 29.05 in /  983.6 hPa WNW 10.0 mph /  16.1 km/h 16.0 mph /  25.7 km/h 84 % 0.00 in /  0 mm 439 W/m2
10:25 41.5 °F /  5.3 °C 36.7 °F /  2.6 °C 29.05 in /  983.6 hPa West 11.0 mph /  17.7 km/h 16.0 mph /  25.7 km/h 83 % 0.00 in /  0 mm 543 W/m2
10:30 42.0 °F /  5.6 °C 37.2 °F /  2.9 °C 29.05 in /  983.6 hPa WSW 10.0 mph /  16.1 km/h 13.0 mph /  20.9 km/h 83 % 0.00 in /  0 mm 552 W/m2
10:40 42.0 °F /  5.6 °C 36.9 °F /  2.7 °C 29.05 in /  983.6 hPa West 11.0 mph /  17.7 km/h 11.0 mph /  17.7 km/h 82 % 0.00 in /  0 mm 418 W/m2
10:45 42.2 °F /  5.7 °C 37.1 °F /  2.8 °C 29.05 in /  983.6 hPa WSW 10.0 mph /  16.1 km/h 11.0 mph /  17.7 km/h 82 % 0.00 in /  0 mm 485 W/m2
10:50 42.4 °F /  5.8 °C 37.0 °F /  2.8 °C 29.06 in /  984 hPa WSW 9.0 mph /  14.5 km/h 13.0 mph /  20.9 km/h 81 % 0.00 in /  0 mm 476 W/m2
10:55 42.5 °F /  5.8 °C 36.8 °F /  2.7 °C 29.05 in /  983.6 hPa West 9.0 mph /  14.5 km/h 13.0 mph /  20.9 km/h 80 % 0.00 in /  0 mm 612 W/m2
11:00 42.7 °F /  5.9 °C 37.0 °F /  2.8 °C 29.05 in /  983.6 hPa West 10.0 mph /  16.1 km/h 10.0 mph /  16.1 km/h 80 % 0.00 in /  0 mm 612 W/m2
11:10 42.6 °F /  5.9 °C 36.9 °F /  2.7 °C 29.05 in /  983.6 hPa West 13.0 mph /  20.9 km/h 14.0 mph /  22.5 km/h 80 % 0.00 in /  0 mm 520 W/m2
11:15 42.6 °F /  5.9 °C 36.9 °F /  2.7 °C 29.05 in /  983.6 hPa WSW 13.0 mph /  20.9 km/h 14.0 mph /  22.5 km/h 80 % 0.00 in /  0 mm 169 W/m2
11:20 42.8 °F /  6 °C 37.4 °F /  3 °C 29.05 in /  983.6 hPa WSW 13.0 mph /  20.9 km/h 13.0 mph /  20.9 km/h 81 % 0.00 in /  0 mm 513 W/m2
11:25 43.3 °F /  6.3 °C 37.9 °F /  3.3 °C 29.05 in /  983.6 hPa WSW 10.0 mph /  16.1 km/h 13.0 mph /  20.9 km/h 81 % 0.00 in /  0 mm 529 W/m2
11:30 43.3 °F /  6.3 °C 37.5 °F /  3.1 °C 29.06 in /  984 hPa SW 11.0 mph /  17.7 km/h 13.0 mph /  20.9 km/h 80 % 0.00 in /  0 mm 529 W/m2
11:35 43.0 °F /  6.1 °C 36.9 °F /  2.7 °C 29.06 in /  984 hPa WSW 14.0 mph /  22.5 km/h 14.0 mph /  22.5 km/h 79 % 0.00 in /  0 mm 548 W/m2
11:45 43.1 °F /  6.2 °C 37.3 °F /  2.9 °C 29.06 in /  984 hPa West 12.0 mph /  19.3 km/h 13.0 mph /  20.9 km/h 80 % 0.00 in /  0 mm 221 W/m2
11:50 43.4 °F /  6.3 °C 37.6 °F /  3.1 °C 29.07 in /  984.3 hPa SW 13.0 mph /  20.9 km/h 14.0 mph /  22.5 km/h 80 % 0.00 in /  0 mm 640 W/m2
11:55 43.7 °F /  6.5 °C 37.9 °F /  3.3 °C 29.07 in /  984.3 hPa SW 12.0 mph /  19.3 km/h 15.0 mph /  24.1 km/h 80 % 0.00 in /  0 mm 533 W/m2
12:00 43.9 °F /  6.6 °C 38.1 °F /  3.4 °C 29.06 in /  984 hPa West 12.0 mph /  19.3 km/h 18.0 mph /  29 km/h 80 % 0.00 in /  0 mm 566 W/m2
12:05 44.2 °F /  6.8 °C 38.4 °F /  3.6 °C 29.07 in /  984.3 hPa WNW 11.0 mph /  17.7 km/h 18.0 mph /  29 km/h 80 % 0.00 in /  0 mm 788 W/m2
12:15 44.1 °F /  6.7 °C 37.3 °F /  2.9 °C 29.07 in /  984.3 hPa WNW 12.0 mph /  19.3 km/h 12.0 mph /  19.3 km/h 77 % 0.00 in /  0 mm 199 W/m2
12:20 43.6 °F /  6.4 °C 37.2 °F /  2.9 °C 29.07 in /  984.3 hPa WSW 12.0 mph /  19.3 km/h 13.0 mph /  20.9 km/h 78 % 0.00 in /  0 mm 612 W/m2
12:25 43.4 °F /  6.3 °C 37.0 °F /  2.8 °C 29.07 in /  984.3 hPa WSW 12.0 mph /  19.3 km/h 15.0 mph /  24.1 km/h 78 % 0.00 in /  0 mm 561 W/m2
12:30 43.6 °F /  6.4 °C 37.5 °F /  3.1 °C 29.07 in /  984.3 hPa SSW 11.0 mph /  17.7 km/h 12.0 mph /  19.3 km/h 79 % 0.00 in /  0 mm 534 W/m2
12:40 43.9 °F /  6.6 °C 36.8 °F /  2.7 °C 29.07 in /  984.3 hPa SW 13.0 mph /  20.9 km/h 13.0 mph /  20.9 km/h 76 % 0.00 in /  0 mm 541 W/m2
12:45 44.1 °F /  6.7 °C 37.0 °F /  2.8 °C 29.07 in /  984.3 hPa West 13.0 mph /  20.9 km/h 15.0 mph /  24.1 km/h 76 % 0.00 in /  0 mm 531 W/m2
12:50 44.3 °F /  6.8 °C 36.9 °F /  2.7 °C 29.07 in /  984.3 hPa WNW 11.0 mph /  17.7 km/h 11.0 mph /  17.7 km/h 75 % 0.00 in /  0 mm 510 W/m2
13:00 44.1 °F /  6.7 °C 36.0 °F /  2.2 °C 29.07 in /  984.3 hPa West 14.0 mph /  22.5 km/h 15.0 mph /  24.1 km/h 73 % 0.00 in /  0 mm 526 W/m2
13:05 44.1 °F /  6.7 °C 36.3 °F /  2.4 °C 29.07 in /  984.3 hPa West 14.0 mph /  22.5 km/h 15.0 mph /  24.1 km/h 74 % 0.00 in /  0 mm 522 W/m2
13:10 44.3 °F /  6.8 °C 36.5 °F /  2.5 °C 29.07 in /  984.3 hPa West 12.0 mph /  19.3 km/h 12.0 mph /  19.3 km/h 74 % 0.00 in /  0 mm 538 W/m2
13:15 44.6 °F /  7 °C 36.5 °F /  2.5 °C 29.07 in /  984.3 hPa West 13.0 mph /  20.9 km/h 15.0 mph /  24.1 km/h 73 % 0.00 in /  0 mm 519 W/m2
13:25 44.6 °F /  7 °C 36.1 °F /  2.3 °C 29.07 in /  984.3 hPa West 14.0 mph /  22.5 km/h 18.0 mph /  29 km/h 72 % 0.00 in /  0 mm 517 W/m2
13:30 44.6 °F /  7 °C 36.5 °F /  2.5 °C 29.07 in /  984.3 hPa WSW 14.0 mph /  22.5 km/h 14.0 mph /  22.5 km/h 73 % 0.00 in /  0 mm 520 W/m2
13:35 44.7 °F /  7.1 °C 36.9 °F /  2.7 °C 29.07 in /  984.3 hPa West 12.0 mph /  19.3 km/h 16.0 mph /  25.7 km/h 74 % 0.00 in /  0 mm 541 W/m2
13:40 44.3 °F /  6.8 °C 36.2 °F /  2.3 °C 29.08 in /  984.6 hPa WSW 11.0 mph /  17.7 km/h 11.0 mph /  17.7 km/h 73 % 0.00 in /  0 mm 141 W/m2
13:45 43.9 °F /  6.6 °C 36.1 °F /  2.3 °C 29.07 in /  984.3 hPa SW 13.0 mph /  20.9 km/h 13.0 mph /  20.9 km/h 74 % 0.00 in /  0 mm 156 W/m2
13:55 44.2 °F /  6.8 °C 36.8 °F /  2.7 °C 29.07 in /  984.3 hPa WSW 12.0 mph /  19.3 km/h 15.0 mph /  24.1 km/h 75 % 0.00 in /  0 mm 531 W/m2
14:00 44.5 °F /  6.9 °C 37.1 °F /  2.8 °C 29.08 in /  984.6 hPa WSW 11.0 mph /  17.7 km/h 11.0 mph /  17.7 km/h 75 % 0.00 in /  0 mm 527 W/m2
14:05 44.5 °F /  6.9 °C 37.1 °F /  2.8 °C 29.08 in /  984.6 hPa SSW 11.0 mph /  17.7 km/h 11.0 mph /  17.7 km/h 75 % 0.00 in /  0 mm 512 W/m2
14:10 44.3 °F /  6.8 °C 37.2 °F /  2.9 °C 29.08 in /  984.6 hPa WSW 10.0 mph /  16.1 km/h 13.0 mph /  20.9 km/h 76 % 0.00 in /  0 mm 548 W/m2
14:15 44.3 °F /  6.8 °C 36.9 °F /  2.7 °C 29.08 in /  984.6 hPa SW 11.0 mph /  17.7 km/h 13.0 mph /  20.9 km/h 75 % 0.00 in /  0 mm 468 W/m2
14:20 44.4 °F /  6.9 °C 37.3 °F /  2.9 °C 29.08 in /  984.6 hPa SW 12.0 mph /  19.3 km/h 12.0 mph /  19.3 km/h 76 % 0.00 in /  0 mm 439 W/m2
14:30 44.4 °F /  6.9 °C 37.3 °F /  2.9 °C 29.08 in /  984.6 hPa SSW 10.0 mph /  16.1 km/h 10.0 mph /  16.1 km/h 76 % 0.00 in /  0 mm 267 W/m2
14:35 44.1 °F /  6.7 °C 37.0 °F /  2.8 °C 29.09 in /  985 hPa SW 9.0 mph /  14.5 km/h 10.0 mph /  16.1 km/h 76 % 0.00 in /  0 mm 213 W/m2
14:40 44.0 °F /  6.7 °C 37.6 °F /  3.1 °C 29.09 in /  985 hPa SSW 9.0 mph /  14.5 km/h 9.0 mph /  14.5 km/h 78 % 0.00 in /  0 mm 397 W/m2
14:45 44.6 °F /  7 °C 37.5 °F /  3.1 °C 29.09 in /  985 hPa WSW 9.0 mph /  14.5 km/h 9.0 mph /  14.5 km/h 76 % 0.00 in /  0 mm 531 W/m2
14:50 44.6 °F /  7 °C 37.5 °F /  3.1 °C 29.09 in /  985 hPa SW 10.0 mph /  16.1 km/h 10.0 mph /  16.1 km/h 76 % 0.00 in /  0 mm 406 W/m2
15:00 43.9 °F /  6.6 °C 37.2 °F /  2.9 °C 29.09 in /  985 hPa SW 8.0 mph /  12.9 km/h 8.0 mph /  12.9 km/h 77 % 0.00 in /  0 mm 190 W/m2
15:05 43.8 °F /  6.6 °C 37.1 °F /  2.8 °C 29.09 in /  985 hPa SW 8.0 mph /  12.9 km/h 8.0 mph /  12.9 km/h 77 % 0.00 in /  0 mm 178 W/m2
15:10 43.6 °F /  6.4 °C 36.9 °F /  2.7 °C 29.09 in /  985 hPa WSW 7.0 mph /  11.3 km/h 7.0 mph /  11.3 km/h 77 % 0.00 in /  0 mm 214 W/m2
15:15 43.9 °F /  6.6 °C 37.8 °F /  3.2 °C 29.09 in /  985 hPa WSW 6.0 mph /  9.7 km/h 9.0 mph /  14.5 km/h 79 % 0.00 in /  0 mm 155 W/m2
15:20 43.9 °F /  6.6 °C 37.5 °F /  3.1 °C 29.09 in /  985 hPa West 7.0 mph /  11.3 km/h 7.0 mph /  11.3 km/h 78 % 0.00 in /  0 mm 102 W/m2
15:25 43.6 °F /  6.4 °C 37.5 °F /  3.1 °C 29.09 in /  985 hPa SSW 9.0 mph /  14.5 km/h 9.0 mph /  14.5 km/h 79 % 0.00 in /  0 mm 109 W/m2
15:30 43.2 °F /  6.2 °C 37.1 °F /  2.8 °C 29.09 in /  985 hPa SSW 8.0 mph /  12.9 km/h 10.0 mph /  16.1 km/h 79 % 0.00 in /  0 mm 105 W/m2
15:35 43.0 °F /  6.1 °C 37.3 °F /  2.9 °C 29.09 in /  985 hPa SW 8.0 mph /  12.9 km/h 10.0 mph /  16.1 km/h 80 % 0.00 in /  0 mm 79 W/m2
15:40 43.0 °F /  6.1 °C 37.6 °F /  3.1 °C 29.09 in /  985 hPa SSW 7.0 mph /  11.3 km/h 7.0 mph /  11.3 km/h 81 % 0.00 in /  0 mm 65 W/m2
15:45 42.9 °F /  6.1 °C 37.5 °F /  3.1 °C 29.10 in /  985.3 hPa SW 6.0 mph /  9.7 km/h 10.0 mph /  16.1 km/h 81 % 0.00 in /  0 mm 65 W/m2
15:50 42.7 °F /  5.9 °C 37.6 °F /  3.1 °C 29.10 in /  985.3 hPa SSW 6.0 mph /  9.7 km/h 6.0 mph /  9.7 km/h 82 % 0.00 in /  0 mm 76 W/m2
15:55 42.6 °F /  5.9 °C 37.8 °F /  3.2 °C 29.10 in /  985.3 hPa SW 7.0 mph /  11.3 km/h 7.0 mph /  11.3 km/h 83 % 0.00 in /  0 mm 74 W/m2
16:05 42.5 °F /  5.8 °C 38.0 °F /  3.3 °C 29.10 in /  985.3 hPa SW 5.0 mph /  8 km/h 7.0 mph /  11.3 km/h 84 % 0.00 in /  0 mm 53 W/m2
16:10 42.5 °F /  5.8 °C 38.0 °F /  3.3 °C 29.10 in /  985.3 hPa SSW 4.0 mph /  6.4 km/h 6.0 mph /  9.7 km/h 84 % 0.00 in /  0 mm 39 W/m2
16:20 42.3 °F /  5.7 °C 38.1 °F /  3.4 °C 29.10 in /  985.3 hPa South 5.0 mph /  8 km/h 5.0 mph /  8 km/h 85 % 0.00 in /  0 mm 26 W/m2
16:25 42.3 °F /  5.7 °C 38.4 °F /  3.6 °C 29.10 in /  985.3 hPa South 4.0 mph /  6.4 km/h 6.0 mph /  9.7 km/h 86 % 0.00 in /  0 mm 28 W/m2
16:30 42.2 °F /  5.7 °C 38.3 °F /  3.5 °C 29.10 in /  985.3 hPa SSW 5.0 mph /  8 km/h 5.0 mph /  8 km/h 86 % 0.00 in /  0 mm 28 W/m2
16:40 41.9 °F /  5.5 °C 38.3 °F /  3.5 °C 29.10 in /  985.3 hPa SSW 5.0 mph /  8 km/h 6.0 mph /  9.7 km/h 87 % 0.00 in /  0 mm 32 W/m2
16:45 41.9 °F /  5.5 °C 38.6 °F /  3.7 °C 29.10 in /  985.3 hPa SSW 4.0 mph /  6.4 km/h 6.0 mph /  9.7 km/h 88 % 0.00 in /  0 mm 26 W/m2
16:50 41.9 °F /  5.5 °C 38.6 °F /  3.7 °C 29.10 in /  985.3 hPa South 3.0 mph /  4.8 km/h 6.0 mph /  9.7 km/h 88 % 0.00 in /  0 mm 28 W/m2
16:55 41.9 °F /  5.5 °C 38.6 °F /  3.7 °C 29.10 in /  985.3 hPa SSW 2.0 mph /  3.2 km/h 6.0 mph /  9.7 km/h 88 % 0.00 in /  0 mm 18 W/m2
17:00 41.9 °F /  5.5 °C 38.6 °F /  3.7 °C 29.10 in /  985.3 hPa South 3.0 mph /  4.8 km/h 3.0 mph /  4.8 km/h 88 % 0.00 in /  0 mm 11 W/m2
17:05 41.7 °F /  5.4 °C 38.1 °F /  3.4 °C 29.10 in /  985.3 hPa SSW 4.0 mph /  6.4 km/h 4.0 mph /  6.4 km/h 87 % 0.00 in /  0 mm 9 W/m2
17:15 41.6 °F /  5.3 °C 38.3 °F /  3.5 °C 29.11 in /  985.7 hPa South 3.0 mph /  4.8 km/h 5.0 mph /  8 km/h 88 % 0.00 in /  0 mm 5 W/m2
17:20 41.5 °F /  5.3 °C 38.2 °F /  3.4 °C 29.11 in /  985.7 hPa South 4.0 mph /  6.4 km/h 4.0 mph /  6.4 km/h 88 % 0.00 in /  0 mm 5 W/m2
17:25 41.4 °F /  5.2 °C 38.1 °F /  3.4 °C 29.11 in /  985.7 hPa South 4.0 mph /  6.4 km/h 5.0 mph /  8 km/h 88 % 0.00 in /  0 mm 5 W/m2
17:30 41.3 °F /  5.2 °C 38.3 °F /  3.5 °C 29.11 in /  985.7 hPa South 4.0 mph /  6.4 km/h 6.0 mph /  9.7 km/h 89 % 0.00 in /  0 mm 0 W/m2
17:35 41.3 °F /  5.2 °C 38.3 °F /  3.5 °C 29.11 in /  985.7 hPa SSE 3.0 mph /  4.8 km/h 6.0 mph /  9.7 km/h 89 % 0.00 in /  0 mm 0 W/m2
17:45 41.2 °F /  5.1 °C 38.2 °F /  3.4 °C 29.12 in /  986 hPa South 2.0 mph /  3.2 km/h 6.0 mph /  9.7 km/h 89 % 0.00 in /  0 mm 0 W/m2
17:50 41.2 °F /  5.1 °C 38.5 °F /  3.6 °C 29.12 in /  986 hPa SSE 2.0 mph /  3.2 km/h 6.0 mph /  9.7 km/h 90 % 0.00 in /  0 mm 0 W/m2
17:55 41.1 °F /  5.1 °C 38.4 °F /  3.6 °C 29.12 in /  986 hPa South 2.0 mph /  3.2 km/h 6.0 mph /  9.7 km/h 90 % 0.00 in /  0 mm 0 W/m2
18:00 41.1 °F /  5.1 °C 38.4 °F /  3.6 °C 29.12 in /  986 hPa South 2.0 mph /  3.2 km/h 2.0 mph /  3.2 km/h 90 % 0.00 in /  0 mm 0 W/m2
18:05 41.1 °F /  5.1 °C 38.4 °F /  3.6 °C 29.12 in /  986 hPa South 2.0 mph /  3.2 km/h 6.0 mph /  9.7 km/h 90 % 0.00 in /  0 mm 0 W/m2
18:10 41.0 °F /  5 °C 38.3 °F /  3.5 °C 29.12 in /  986 hPa South 2.0 mph /  3.2 km/h 2.0 mph /  3.2 km/h 90 % 0.00 in /  0 mm 0 W/m2
18:20 41.1 °F /  5.1 °C 38.7 °F /  3.7 °C 29.13 in /  986.3 hPa Calm   6.0 mph /  9.7 km/h 91 % 0.00 in /  0 mm 0 W/m2
18:25 41.1 °F /  5.1 °C 38.7 °F /  3.7 °C 29.13 in /  986.3 hPa Calm   6.0 mph /  9.7 km/h 91 % 0.00 in /  0 mm 0 W/m2
18:30 41.2 °F /  5.1 °C 38.8 °F /  3.8 °C 29.13 in /  986.3 hPa SSW 1.0 mph /  1.6 km/h 6.0 mph /  9.7 km/h 91 % 0.00 in /  0 mm 0 W/m2
18:35 41.2 °F /  5.1 °C 38.8 °F /  3.8 °C 29.13 in /  986.3 hPa SSW 1.0 mph /  1.6 km/h 6.0 mph /  9.7 km/h 91 % 0.00 in /  0 mm 0 W/m2
18:45 41.2 °F /  5.1 °C 38.5 °F /  3.6 °C 29.14 in /  986.7 hPa SSW 2.0 mph /  3.2 km/h 2.0 mph /  3.2 km/h 90 % 0.00 in /  0 mm 0 W/m2
18:50 41.2 °F /  5.1 °C 38.5 °F /  3.6 °C 29.14 in /  986.7 hPa WSW 2.0 mph /  3.2 km/h 6.0 mph /  9.7 km/h 90 % 0.00 in /  0 mm 0 W/m2
18:55 41.2 °F /  5.1 °C 38.5 °F /  3.6 °C 29.15 in /  987 hPa WSW 2.0 mph /  3.2 km/h 6.0 mph /  9.7 km/h 90 % 0.00 in /  0 mm 0 W/m2
19:05 41.2 °F /  5.1 °C 38.2 °F /  3.4 °C 29.15 in /  987 hPa WSW 4.0 mph /  6.4 km/h 6.0 mph /  9.7 km/h 89 % 0.00 in /  0 mm 0 W/m2
19:10 41.1 °F /  5.1 °C 38.1 °F /  3.4 °C 29.16 in /  987.4 hPa WSW 5.0 mph /  8 km/h 8.0 mph /  12.9 km/h 89 % 0.00 in /  0 mm 0 W/m2
19:15 41.0 °F /  5 °C 37.7 °F /  3.2 °C 29.16 in /  987.4 hPa WSW 6.0 mph /  9.7 km/h 8.0 mph /  12.9 km/h 88 % 0.00 in /  0 mm 0 W/m2
19:25 40.8 °F /  4.9 °C 37.2 °F /  2.9 °C 29.16 in /  987.4 hPa West 4.0 mph /  6.4 km/h 6.0 mph /  9.7 km/h 87 % 0.00 in /  0 mm 0 W/m2
19:30 40.7 °F /  4.8 °C 37.1 °F /  2.8 °C 29.16 in /  987.4 hPa West 3.0 mph /  4.8 km/h 3.0 mph /  4.8 km/h 87 % 0.00 in /  0 mm 0 W/m2
19:35 40.5 °F /  4.7 °C 36.9 °F /  2.7 °C 29.16 in /  987.4 hPa WNW 3.0 mph /  4.8 km/h 4.0 mph /  6.4 km/h 87 % 0.00 in /  0 mm 0 W/m2
19:40 40.4 °F /  4.7 °C 36.8 °F /  2.7 °C 29.17 in /  987.7 hPa WNW 3.0 mph /  4.8 km/h 3.0 mph /  4.8 km/h 87 % 0.00 in /  0 mm 0 W/m2
19:45 40.2 °F /  4.6 °C 36.6 °F /  2.6 °C 29.17 in /  987.7 hPa WNW 2.0 mph /  3.2 km/h 6.0 mph /  9.7 km/h 87 % 0.00 in /  0 mm 0 W/m2
19:50 40.2 °F /  4.6 °C 36.9 °F /  2.7 °C 29.17 in /  987.7 hPa WNW 1.0 mph /  1.6 km/h 6.0 mph /  9.7 km/h 88 % 0.00 in /  0 mm 0 W/m2
20:00 40.1 °F /  4.5 °C 36.8 °F /  2.7 °C 29.17 in /  987.7 hPa WNW 1.0 mph /  1.6 km/h 6.0 mph /  9.7 km/h 88 % 0.00 in /  0 mm 0 W/m2
20:05 40.0 °F /  4.4 °C 36.7 °F /  2.6 °C 29.18 in /  988 hPa WNW 1.0 mph /  1.6 km/h 6.0 mph /  9.7 km/h 88 % 0.00 in /  0 mm 0 W/m2
20:10 40.0 °F /  4.4 °C 37.0 °F /  2.8 °C 29.18 in /  988 hPa WNW 1.0 mph /  1.6 km/h 6.0 mph /  9.7 km/h 89 % 0.00 in /  0 mm 0 W/m2
20:15 40.0 °F /  4.4 °C 37.0 °F /  2.8 °C 29.18 in /  988 hPa WNW 2.0 mph /  3.2 km/h 6.0 mph /  9.7 km/h 89 % 0.00 in /  0 mm 0 W/m2
20:20 40.0 °F /  4.4 °C 37.0 °F /  2.8 °C 29.19 in /  988.4 hPa WNW 2.0 mph /  3.2 km/h 6.0 mph /  9.7 km/h 89 % 0.00 in /  0 mm 0 W/m2
20:30 40.1 °F /  4.5 °C 37.1 °F /  2.8 °C 29.19 in /  988.4 hPa WNW 2.0 mph /  3.2 km/h 6.0 mph /  9.7 km/h 89 % 0.00 in /  0 mm 0 W/m2
20:35 40.1 °F /  4.5 °C 37.1 °F /  2.8 °C 29.20 in /  988.7 hPa WNW 4.0 mph /  6.4 km/h 6.0 mph /  9.7 km/h 89 % 0.00 in /  0 mm 0 W/m2
20:40 40.1 °F /  4.5 °C 37.4 °F /  3 °C 29.20 in /  988.7 hPa NW 5.0 mph /  8 km/h 6.0 mph /  9.7 km/h 90 % 0.00 in /  0 mm 0 W/m2
20:45 40.2 °F /  4.6 °C 37.5 °F /  3.1 °C 29.20 in /  988.7 hPa NW 5.0 mph /  8 km/h 6.0 mph /  9.7 km/h 90 % 0.00 in /  0 mm 0 W/m2
20:50 40.2 °F /  4.6 °C 37.2 °F /  2.9 °C 29.21 in /  989.1 hPa NW 3.0 mph /  4.8 km/h 3.0 mph /  4.8 km/h 89 % 0.00 in /  0 mm 0 W/m2
20:55 40.2 °F /  4.6 °C 37.2 °F /  2.9 °C 29.21 in /  989.1 hPa WNW 3.0 mph /  4.8 km/h 6.0 mph /  9.7 km/h 89 % 0.00 in /  0 mm 0 W/m2
21:00 40.2 °F /  4.6 °C 37.5 °F /  3.1 °C 29.22 in /  989.4 hPa NW 4.0 mph /  6.4 km/h 6.0 mph /  9.7 km/h 90 % 0.00 in /  0 mm 0 W/m2
21:05 40.3 °F /  4.6 °C 37.6 °F /  3.1 °C 29.22 in /  989.4 hPa WNW 3.0 mph /  4.8 km/h 6.0 mph /  9.7 km/h 90 % 0.00 in /  0 mm 0 W/m2
21:10 40.3 °F /  4.6 °C 37.6 °F /  3.1 °C 29.22 in /  989.4 hPa WNW 3.0 mph /  4.8 km/h 6.0 mph /  9.7 km/h 90 % 0.00 in /  0 mm 0 W/m2
21:15 40.4 °F /  4.7 °C 37.7 °F /  3.2 °C 29.23 in /  989.7 hPa WNW 5.0 mph /  8 km/h 7.0 mph /  11.3 km/h 90 % 0.00 in /  0 mm 0 W/m2
21:25 40.5 °F /  4.7 °C 38.1 °F /  3.4 °C 29.24 in /  990.1 hPa WNW 6.0 mph /  9.7 km/h 9.0 mph /  14.5 km/h 91 % 0.00 in /  0 mm 0 W/m2
21:30 40.4 °F /  4.7 °C 38.0 °F /  3.3 °C 29.24 in /  990.1 hPa WNW 6.0 mph /  9.7 km/h 7.0 mph /  11.3 km/h 91 % 0.00 in /  0 mm 0 W/m2
21:35 40.3 °F /  4.6 °C 38.2 °F /  3.4 °C 29.24 in /  990.1 hPa WNW 6.0 mph /  9.7 km/h 7.0 mph /  11.3 km/h 92 % 0.00 in /  0 mm 0 W/m2
21:45 40.2 °F /  4.6 °C 38.1 °F /  3.4 °C 29.24 in /  990.1 hPa WNW 5.0 mph /  8 km/h 6.0 mph /  9.7 km/h 92 % 0.00 in /  0 mm 0 W/m2
21:50 40.1 °F /  4.5 °C 38.0 °F /  3.3 °C 29.24 in /  990.1 hPa WNW 5.0 mph /  8 km/h 5.0 mph /  8 km/h 92 % 0.00 in /  0 mm 0 W/m2
21:55 40.1 °F /  4.5 °C 38.0 °F /  3.3 °C 29.25 in /  990.4 hPa WNW 5.0 mph /  8 km/h 6.0 mph /  9.7 km/h 92 % 0.00 in /  0 mm 0 W/m2
22:00 39.9 °F /  4.4 °C 37.8 °F /  3.2 °C 29.25 in /  990.4 hPa WNW 5.0 mph /  8 km/h 7.0 mph /  11.3 km/h 92 % 0.00 in /  0 mm 0 W/m2
22:10 39.7 °F /  4.3 °C 37.6 °F /  3.1 °C 29.26 in /  990.7 hPa NW 6.0 mph /  9.7 km/h 8.0 mph /  12.9 km/h 92 % 0.00 in /  0 mm 0 W/m2
22:15 39.6 °F /  4.2 °C 37.7 °F /  3.2 °C 29.26 in /  990.7 hPa NW 7.0 mph /  11.3 km/h 8.0 mph /  12.9 km/h 93 % 0.00 in /  0 mm 0 W/m2
22:20 39.6 °F /  4.2 °C 37.7 °F /  3.2 °C 29.26 in /  990.7 hPa NW 7.0 mph /  11.3 km/h 7.0 mph /  11.3 km/h 93 % 0.00 in /  0 mm 0 W/m2
22:25 39.5 °F /  4.2 °C 37.6 °F /  3.1 °C 29.26 in /  990.7 hPa NW 6.0 mph /  9.7 km/h 7.0 mph /  11.3 km/h 93 % 0.00 in /  0 mm 0 W/m2
22:30 39.5 °F /  4.2 °C 37.6 °F /  3.1 °C 29.26 in /  990.7 hPa NW 6.0 mph /  9.7 km/h 6.0 mph /  9.7 km/h 93 % 0.00 in /  0 mm 0 W/m2
22:35 39.4 °F /  4.1 °C 37.5 °F /  3.1 °C 29.27 in /  991.1 hPa WNW 6.0 mph /  9.7 km/h 6.0 mph /  9.7 km/h 93 % 0.00 in /  0 mm 0 W/m2
22:45 39.5 °F /  4.2 °C 37.6 °F /  3.1 °C 29.27 in /  991.1 hPa WNW 4.0 mph /  6.4 km/h 6.0 mph /  9.7 km/h 93 % 0.00 in /  0 mm 0 W/m2
22:50 39.5 °F /  4.2 °C 37.6 °F /  3.1 °C 29.28 in /  991.4 hPa WNW 3.0 mph /  4.8 km/h 3.0 mph /  4.8 km/h 93 % 0.00 in /  0 mm 0 W/m2
22:55 39.5 °F /  4.2 °C 37.6 °F /  3.1 °C 29.28 in /  991.4 hPa WNW 3.0 mph /  4.8 km/h 6.0 mph /  9.7 km/h 93 % 0.00 in /  0 mm 0 W/m2
23:00 39.3 °F /  4.1 °C 37.4 °F /  3 °C 29.28 in /  991.4 hPa West 5.0 mph /  8 km/h 12.0 mph /  19.3 km/h 93 % 0.00 in /  0 mm 0 W/m2
23:05 39.2 °F /  4 °C 37.1 °F /  2.8 °C 29.28 in /  991.4 hPa NNW 6.0 mph /  9.7 km/h 12.0 mph /  19.3 km/h 92 % 0.00 in /  0 mm 0 W/m2
23:15 38.8 °F /  3.8 °C 36.7 °F /  2.6 °C 29.29 in /  991.8 hPa WNW 7.0 mph /  11.3 km/h 8.0 mph /  12.9 km/h 92 % 0.00 in /  0 mm 0 W/m2
23:20 38.7 °F /  3.7 °C 36.6 °F /  2.6 °C 29.29 in /  991.8 hPa West 6.0 mph /  9.7 km/h 6.0 mph /  9.7 km/h 92 % 0.00 in /  0 mm 0 W/m2
23:25 38.5 °F /  3.6 °C 36.4 °F /  2.4 °C 29.30 in /  992.1 hPa NW 7.0 mph /  11.3 km/h 7.0 mph /  11.3 km/h 92 % 0.00 in /  0 mm 0 W/m2
23:30 38.4 °F /  3.6 °C 36.3 °F /  2.4 °C 29.30 in /  992.1 hPa WNW 7.0 mph /  11.3 km/h 7.0 mph /  11.3 km/h 92 % 0.00 in /  0 mm 0 W/m2
23:35 38.2 °F /  3.4 °C 36.1 °F /  2.3 °C 29.31 in /  992.4 hPa WNW 7.0 mph /  11.3 km/h 7.0 mph /  11.3 km/h 92 % 0.00 in /  0 mm 0 W/m2
23:40 38.1 °F /  3.4 °C 36.0 °F /  2.2 °C 29.31 in /  992.4 hPa WNW 6.0 mph /  9.7 km/h 6.0 mph /  9.7 km/h 92 % 0.00 in /  0 mm 0 W/m2
23:50 37.9 °F /  3.3 °C 35.8 °F /  2.1 °C 29.31 in /  992.4 hPa WNW 5.0 mph /  8 km/h 6.0 mph /  9.7 km/h 92 % 0.00 in /  0 mm 0 W/m2
23:55 37.7 °F /  3.2 °C 35.6 °F /  2 °C 29.31 in /  992.4 hPa NW 5.0 mph /  8 km/h 8.0 mph /  12.9 km/h 92 % 0.00 in /  0 mm 0 W/m2
Delerius-Weather
Compliments of Weather Underground - 2 mb

Data updates at regular intervals.